Time;durP1;ratioP1;P1;durP2;ratioP2;P2;SDS_P1;SDS_P2;PMS_P1;PMS_P2;Temp;Humidity;BMP_temperature;BMP_pressure;BME280_temperature;BME280_humidity;BME280_pressure;Samples;Min_cycle;Max_cycle;Signal;HPM_P1;HPM_P2
2021/12/13 00:00:07;;;;;;;11.93;2.80;;;;;;;11.33;100.00;102358.63;5150231;27;20100;-73
2021/12/13 00:02:42;;;;;;;10.23;2.88;;;;;;;11.40;100.00;102359.28;5066313;27;20489;-73
2021/12/13 00:05:17;;;;;;;11.13;2.78;;;;;;;11.38;100.00;102361.47;5108863;27;20057;-73
2021/12/13 00:07:50;;;;;;;9.25;2.90;;;;;;;11.33;100.00;102360.53;5112234;27;20023;-75
2021/12/13 00:10:23;;;;;;;10.15;2.75;;;;;;;11.55;100.00;102371.59;5122399;27;20034;-75
2021/12/13 00:12:58;;;;;;;9.38;2.65;;;;;;;11.26;100.00;102370.84;5107723;27;20031;-75
2021/12/13 00:15:32;;;;;;;10.27;2.35;;;;;;;11.49;100.00;102370.66;5145789;27;20101;-73
2021/12/13 00:18:00;;;;;;;8.60;2.65;;;;;;;11.33;100.00;102366.88;5126417;27;20053;-75
2021/12/13 00:20:36;;;;;;;7.05;1.88;;;;;;;11.45;100.00;102361.28;5129258;27;20314;-75
2021/12/13 00:23:33;;;;;;;8.15;2.10;;;;;;;11.37;100.00;102365.28;5148516;27;20014;-74
2021/12/13 00:26:02;;;;;;;7.80;2.25;;;;;;;11.42;100.00;102367.28;5121393;27;20246;-75
2021/12/13 00:28:39;;;;;;;6.97;2.10;;;;;;;11.39;100.00;102363.09;5126164;27;20042;-74
2021/12/13 00:31:28;;;;;;;8.30;2.08;;;;;;;11.26;100.00;102363.44;5143519;27;20036;-74
2021/12/13 00:34:01;;;;;;;6.88;1.65;;;;;;;11.26;100.00;102363.44;5105478;27;20027;-75
2021/12/13 00:36:37;;;;;;;8.63;1.98;;;;;;;11.26;100.00;102359.88;5108141;27;20046;-74
2021/12/13 00:39:11;;;;;;;5.18;1.70;;;;;;;11.33;100.00;102366.88;5138244;27;20022;-75
2021/12/13 00:41:37;;;;;;;11.15;2.45;;;;;;;11.49;100.00;102369.84;5125562;27;20030;-74
2021/12/13 00:44:07;;;;;;;9.82;2.08;;;;;;;11.49;100.00;102362.44;5130499;27;20027;-75
2021/12/13 00:46:37;;;;;;;6.78;1.95;;;;;;;11.52;100.00;102375.66;5126859;27;20114;-73
2021/12/13 00:49:08;;;;;;;7.78;2.13;;;;;;;11.38;100.00;102364.19;5145567;27;20109;-73
2021/12/13 00:51:39;;;;;;;3.40;1.70;;;;;;;11.37;100.00;102373.50;5133611;27;20038;-73
2021/12/13 00:54:12;;;;;;;5.25;1.60;;;;;;;11.26;100.00;102373.59;5128268;27;20027;-74
2021/12/13 00:56:53;;;;;;;8.25;2.40;;;;;;;11.54;100.00;102376.25;5144310;27;20045;-74
2021/12/13 00:59:31;;;;;;;6.78;2.25;;;;;;;11.27;100.00;102381.59;5131334;27;20381;-73
2021/12/13 01:02:02;;;;;;;8.57;2.05;;;;;;;11.49;100.00;102378.91;5092258;27;20039;-73
2021/12/13 01:05:24;;;;;;;9.13;1.50;;;;;;;11.39;100.00;102382.31;5126004;27;20039;-73
2021/12/13 01:08:23;;;;;;;4.75;1.70;;;;;;;11.40;100.00;102386.75;5037232;28;20110;-74
2021/12/13 01:10:55;;;;;;;5.72;1.65;;;;;;;11.46;100.00;102389.56;5029076;28;20102;-74
2021/12/13 01:13:34;;;;;;;3.72;1.70;;;;;;;11.66;100.00;102381.66;5081678;27;20035;-73
2021/12/13 01:16:18;;;;;;;5.22;1.70;;;;;;;11.72;100.00;102377.06;5089583;27;20019;-73
2021/12/13 01:19:25;;;;;;;6.53;2.15;;;;;;;11.51;100.00;102382.25;5108032;27;20023;-73
2021/12/13 01:21:58;;;;;;;6.78;1.70;;;;;;;11.53;100.00;102377.34;5123267;27;20031;-73
2021/12/13 01:27:12;;;;;;;4.78;1.65;;;;;;;11.77;100.00;102377.13;5125231;27;20080;-74
2021/12/13 01:29:38;;;;;;;3.10;1.63;;;;;;;11.80;100.00;102384.03;5107765;27;20031;-72
2021/12/13 01:32:07;;;;;;;6.45;1.92;;;;;;;11.74;100.00;102386.72;5120898;27;20019;-74
2021/12/13 01:34:37;;;;;;;6.18;2.45;;;;;;;11.69;100.00;102389.41;5127081;27;20598;-73
2021/12/13 01:37:16;;;;;;;5.45;2.33;;;;;;;11.61;100.00;102392.56;5090978;27;20035;-73
2021/12/13 01:39:52;;;;;;;6.93;2.80;;;;;;;11.66;100.00;102386.31;5121463;27;20011;-73
2021/12/13 01:42:22;;;;;;;7.63;3.05;;;;;;;11.67;100.00;102396.22;5125902;27;20071;-73
2021/12/13 01:44:51;;;;;;;4.90;2.35;;;;;;;11.50;100.00;102399.00;5122853;27;20038;-73
2021/12/13 01:47:28;;;;;;;7.90;2.35;;;;;;;11.48;100.00;102390.16;5121394;27;20023;-73
2021/12/13 01:50:07;;;;;;;3.95;2.05;;;;;;;11.44;100.00;102402.72;5143169;27;20022;-73
2021/12/13 01:52:37;;;;;;;6.25;1.98;;;;;;;11.28;100.00;102391.50;5144804;27;20103;-73
2021/12/13 01:55:26;;;;;;;7.63;2.00;;;;;;;11.28;100.00;102398.88;5107786;27;20031;-73
2021/12/13 01:58:36;;;;;;;6.15;2.30;;;;;;;11.34;100.00;102401.47;5142809;27;20014;-73
2021/12/13 02:01:11;;;;;;;4.70;2.08;;;;;;;11.35;100.00;102400.41;5102597;27;20035;-74
2021/12/13 02:03:57;;;;;;;3.63;2.00;;;;;;;11.41;100.00;102404.03;5103975;27;20042;-73
2021/12/13 02:06:40;;;;;;;4.18;1.95;;;;;;;11.52;100.00;102403.13;5123515;27;20099;-73
2021/12/13 02:09:28;;;;;;;5.18;2.30;;;;;;;11.43;100.00;102404.66;5119403;27;20026;-74
2021/12/13 02:11:57;;;;;;;5.05;2.53;;;;;;;11.31;100.00;102404.72;5141751;27;20054;-73
2021/12/13 02:14:28;;;;;;;4.82;3.00;;;;;;;11.42;100.00;102394.72;5109769;27;20019;-72
2021/12/13 02:17:01;;;;;;;4.32;2.50;;;;;;;11.35;100.00;102408.63;5137093;27;20026;-73
2021/12/13 02:19:49;;;;;;;5.97;2.95;;;;;;;11.28;100.00;102405.22;5143110;27;20054;-73
2021/12/13 02:22:33;;;;;;;5.38;2.72;;;;;;;11.31;100.00;102412.13;5122621;27;20130;-73
2021/12/13 02:25:36;;;;;;;7.10;3.63;;;;;;;11.34;100.00;102409.69;5118767;27;20039;-73
2021/12/13 02:28:09;;;;;;;6.13;3.15;;;;;;;11.18;100.00;102419.63;5105792;27;20080;-73
2021/12/13 02:30:39;;;;;;;6.97;3.00;;;;;;;11.40;100.00;102419.69;5135307;27;20346;-73
2021/12/13 02:33:09;;;;;;;6.13;3.08;;;;;;;11.34;100.00;102417.94;5123723;27;20499;-73
2021/12/13 02:35:41;;;;;;;9.23;3.65;;;;;;;11.18;100.00;102413.28;5142359;27;20163;-74
2021/12/13 02:38:09;;;;;;;5.03;3.47;;;;;;;11.31;100.00;102409.38;5109458;27;20552;-73
2021/12/13 02:40:35;;;;;;;6.40;3.40;;;;;;;11.43;100.00;102406.53;5139137;27;20109;-74
2021/12/13 02:43:01;;;;;;;7.22;3.20;;;;;;;11.28;100.00;102412.63;5124697;27;20160;-73
2021/12/13 02:45:43;;;;;;;8.18;3.45;;;;;;;11.35;100.00;102414.13;5135143;27;20076;-73
2021/12/13 02:48:39;;;;;;;7.50;3.58;;;;;;;11.22;100.00;102411.72;5102524;27;20031;-73
2021/12/13 02:51:19;;;;;;;5.47;3.65;;;;;;;11.55;100.00;102410.06;5118292;27;20058;-74
2021/12/13 02:53:45;;;;;;;6.80;3.47;;;;;;;11.44;100.00;102408.22;5144165;27;20054;-74
2021/12/13 02:56:12;;;;;;;7.75;4.10;;;;;;;11.12;100.00;102408.78;5124086;27;20035;-74
2021/12/13 02:58:40;;;;;;;6.32;3.65;;;;;;;11.31;100.00;102412.13;5125045;27;20031;-73
2021/12/13 03:01:27;;;;;;;10.43;4.90;;;;;;;11.22;100.00;102396.06;5123625;27;20026;-72
2021/12/13 03:03:57;;;;;;;6.60;4.18;;;;;;;11.37;100.00;102409.22;5143787;27;20033;-74
2021/12/13 03:06:30;;;;;;;8.65;4.85;;;;;;;11.34;100.00;102409.69;5144921;27;20048;-74
2021/12/13 03:09:00;;;;;;;;;;;;;;;11.22;100.00;102408.97;5143098;27;20026;-74
2021/12/13 03:11:31;;;;;;;9.27;4.60;;;;;;;11.36;100.00;102402.06;5119911;27;19972;-73
2021/12/13 03:14:05;;;;;;;8.10;5.57;;;;;;;11.22;100.00;102404.28;5125416;27;20034;-74
2021/12/13 03:16:56;;;;;;;7.63;5.35;;;;;;;11.35;100.00;102392.16;5102766;27;20114;-72
2021/12/13 03:19:34;;;;;;;7.15;5.50;;;;;;;11.37;100.00;102387.25;5144155;27;20035;-74
2021/12/13 03:22:35;;;;;;;10.05;6.28;;;;;;;11.33;100.00;102391.59;5120654;27;20031;-73
2021/12/13 03:25:25;;;;;;;10.98;6.25;;;;;;;11.37;100.00;102395.47;5119988;27;20023;-73
2021/12/13 03:28:11;;;;;;;10.15;6.72;;;;;;;11.37;100.00;102400.97;5121636;27;20034;-73
2021/12/13 03:31:03;;;;;;;9.88;6.43;;;;;;;11.22;100.00;102406.22;5121288;27;20095;-73
2021/12/13 03:33:35;;;;;;;8.88;7.13;;;;;;;11.02;100.00;102403.94;5120008;27;20039;-73
2021/12/13 03:36:09;;;;;;;9.63;7.25;;;;;;;11.28;100.00;102401.63;5125613;27;20111;-74
2021/12/13 03:38:39;;;;;;;9.75;6.88;;;;;;;11.31;100.00;102392.91;5126425;27;20179;-73
2021/12/13 03:41:13;;;;;;;9.52;6.85;;;;;;;11.40;100.00;102397.72;5141148;27;20186;-73
2021/12/13 03:43:46;;;;;;;9.65;7.22;;;;;;;11.31;100.00;102398.38;5145566;27;20528;-74
2021/12/13 03:46:19;;;;;;;12.45;8.20;;;;;;;11.26;100.00;102401.06;5119839;27;20026;-73
2021/12/13 03:48:48;;;;;;;9.90;7.70;;;;;;;11.25;100.00;102394.75;5108066;27;20016;-73
2021/12/13 03:51:21;;;;;;;9.98;7.72;;;;;;;11.34;100.00;102395.16;5102604;27;20047;-73
2021/12/13 03:53:50;;;;;;;12.00;7.85;;;;;;;11.09;100.00;102401.03;5137686;27;20149;-73
2021/12/13 03:56:21;;;;;;;13.32;8.65;;;;;;;11.26;100.00;102393.66;5141788;27;20468;-72
2021/12/13 03:58:55;;;;;;;11.23;8.10;;;;;;;11.30;100.00;102399.50;5134393;27;20030;-73
2021/12/13 04:01:25;;;;;;;11.02;7.82;;;;;;;11.45;100.00;102390.66;5098968;27;20059;-72
2021/12/13 04:03:54;;;;;;;9.60;7.80;;;;;;;11.26;100.00;102390.06;5125408;27;20095;-73
2021/12/13 04:06:21;;;;;;;10.60;7.35;;;;;;;11.39;100.00;102385.06;5126879;27;20019;-74
2021/12/13 04:08:51;;;;;;;11.57;8.07;;;;;;;11.37;100.00;102383.66;5093107;27;20034;-74
2021/12/13 04:11:17;;;;;;;11.20;8.27;;;;;;;11.24;100.00;102386.75;5122362;27;20027;-74
2021/12/13 04:13:53;;;;;;;10.98;7.93;;;;;;;11.34;100.00;102387.75;5127355;27;20019;-74
2021/12/13 04:16:35;;;;;;;9.45;7.78;;;;;;;11.40;100.00;102381.25;5103543;27;20102;-73
2021/12/13 04:19:08;;;;;;;10.02;7.97;;;;;;;11.39;100.00;102384.25;5138603;27;20488;-73
2021/12/13 04:21:34;;;;;;;;;;;;;;;11.32;100.00;102389.91;5123849;27;20053;-75
2021/12/13 04:24:03;;;;;;;10.30;7.63;;;;;;;11.28;100.00;102391.50;5132696;27;19925;-73
2021/12/13 04:26:36;;;;;;;8.75;7.60;;;;;;;11.32;100.00;102384.41;5144734;27;20034;-73
2021/12/13 04:29:02;;;;;;;10.75;7.93;;;;;;;11.24;100.00;102398.56;5145779;27;20023;-73
2021/12/13 04:31:32;;;;;;;9.85;7.57;;;;;;;11.29;100.00;102390.41;5102774;27;20131;-74
2021/12/13 04:34:03;;;;;;;9.00;7.18;;;;;;;11.35;100.00;102389.41;5145105;27;20018;-73
2021/12/13 04:36:33;;;;;;;8.63;7.07;;;;;;;11.36;100.00;102401.22;5147288;27;20030;-74
2021/12/13 04:39:05;;;;;;;8.50;6.95;;;;;;;11.33;100.00;102393.47;5146230;27;20018;-73
2021/12/13 04:41:36;;;;;;;10.13;6.73;;;;;;;11.34;100.00;102398.72;5145710;27;20030;-74
2021/12/13 04:44:08;;;;;;;9.88;6.40;;;;;;;11.32;100.00;102389.91;5147600;27;20036;-73
2021/12/13 04:46:35;;;;;;;9.70;6.28;;;;;;;11.34;100.00;102382.25;5121582;27;20030;-74
2021/12/13 04:49:06;;;;;;;8.73;6.65;;;;;;;11.36;100.00;102384.75;5125161;27;20045;-74
2021/12/13 04:51:44;;;;;;;8.10;6.47;;;;;;;11.28;100.00;102385.16;5126407;27;20512;-73
2021/12/13 04:54:12;;;;;;;7.90;6.28;;;;;;;11.39;100.00;102379.56;5127165;27;20023;-72
2021/12/13 04:56:40;;;;;;;9.63;6.45;;;;;;;11.22;100.00;102392.50;5131895;27;20049;-73
2021/12/13 04:59:09;;;;;;;8.43;6.20;;;;;;;11.01;100.00;102392.13;5124683;27;20029;-73
2021/12/13 05:01:35;;;;;;;9.38;6.32;;;;;;;11.29;100.00;102392.31;5126226;27;20128;-74
2021/12/13 05:04:05;;;;;;;7.93;6.00;;;;;;;11.39;100.00;102392.47;5127023;27;20421;-72
2021/12/13 05:06:34;;;;;;;10.52;5.95;;;;;;;11.06;100.00;102391.38;5126632;27;20115;-73
2021/12/13 05:09:03;;;;;;;8.45;5.63;;;;;;;11.16;100.00;102401.72;5107569;27;20059;-73
2021/12/13 05:11:31;;;;;;;7.82;5.90;;;;;;;11.15;100.00;102395.41;5123364;27;20613;-74
2021/12/13 05:13:58;;;;;;;8.82;5.00;;;;;;;11.37;100.00;102402.91;5119836;27;20026;-73
2021/12/13 05:16:39;;;;;;;8.30;5.50;;;;;;;11.41;100.00;102401.28;5139836;27;20167;-72
2021/12/13 05:19:06;;;;;;;7.40;5.35;;;;;;;11.32;100.00;102403.63;5126342;27;20019;-73
2021/12/13 05:21:51;;;;;;;6.28;5.20;;;;;;;11.21;100.00;102405.41;5106722;27;20072;-74
2021/12/13 05:24:22;;;;;;;7.00;4.78;;;;;;;11.19;100.00;102398.47;5125893;27;20561;-74
2021/12/13 05:27:04;;;;;;;7.65;5.32;;;;;;;11.09;100.00;102409.28;5137291;27;20026;-73
2021/12/13 05:29:35;;;;;;;7.03;4.60;;;;;;;11.23;100.00;102405.13;5147663;27;20023;-74
2021/12/13 05:32:13;;;;;;;7.75;5.00;;;;;;;11.28;100.00;102405.22;5130476;27;20027;-74
2021/12/13 05:34:56;;;;;;;7.75;4.80;;;;;;;11.30;100.00;102399.50;5144060;27;20213;-74
2021/12/13 05:37:22;;;;;;;7.72;4.45;;;;;;;11.03;100.00;102398.22;5126941;27;20065;-74
2021/12/13 05:39:57;;;;;;;6.85;4.63;;;;;;;11.18;100.00;102405.88;5145109;27;20023;-73
2021/12/13 05:42:35;;;;;;;6.07;4.63;;;;;;;11.12;100.00;102395.06;5144857;27;20030;-73
2021/12/13 05:45:04;;;;;;;7.60;5.03;;;;;;;11.25;100.00;102404.88;5144729;27;20026;-73
2021/12/13 05:47:29;;;;;;;8.55;4.80;;;;;;;11.16;100.00;102408.03;5139110;27;20030;-73
2021/12/13 05:49:57;;;;;;;7.70;4.40;;;;;;;11.11;100.00;102409.88;5145637;27;20034;-73
2021/12/13 05:52:32;;;;;;;6.05;4.50;;;;;;;11.21;100.00;102410.88;5087231;28;20425;-73
2021/12/13 05:55:02;;;;;;;5.78;4.85;;;;;;;11.27;100.00;102414.53;5107627;27;20055;-74
2021/12/13 05:57:32;;;;;;;6.43;4.28;;;;;;;11.28;100.00;102416.22;5125457;27;20027;-73
2021/12/13 06:00:04;;;;;;;6.75;4.28;;;;;;;11.31;100.00;102412.94;5124817;27;20015;-73
2021/12/13 06:02:50;;;;;;;5.22;4.30;;;;;;;11.33;100.00;102410.81;5121110;27;20023;-73
2021/12/13 06:05:22;;;;;;;6.50;4.18;;;;;;;11.25;100.00;102411.22;5122304;27;20038;-73
2021/12/13 06:08:12;;;;;;;7.30;4.25;;;;;;;11.18;100.00;102418.75;5126395;27;20333;-73
2021/12/13 06:10:49;;;;;;;5.20;4.18;;;;;;;11.12;100.00;102417.84;5122312;27;20019;-73
2021/12/13 06:13:43;;;;;;;5.90;4.45;;;;;;;11.28;100.00;102410.72;5124894;27;20041;-74
2021/12/13 06:16:20;;;;;;;5.72;3.80;;;;;;;11.31;100.00;102420.34;5121056;27;20114;-74
2021/12/13 06:18:58;;;;;;;8.65;4.18;;;;;;;11.14;100.00;102415.69;5122281;27;20019;-73
2021/12/13 06:21:37;;;;;;;8.57;4.38;;;;;;;11.31;100.00;102425.84;5117021;27;20038;-72
2021/12/13 06:24:04;;;;;;;5.75;4.28;;;;;;;11.14;100.00;102421.16;5103598;27;20023;-71
2021/12/13 06:26:30;;;;;;;9.88;4.38;;;;;;;11.09;100.00;102423.00;5095444;28;20042;-72
2021/12/13 06:29:02;;;;;;;8.32;3.95;;;;;;;11.10;100.00;102419.16;5119146;27;20485;-72
2021/12/13 06:31:41;;;;;;;7.30;4.10;;;;;;;11.24;100.00;102415.03;5120842;27;20153;-72
2021/12/13 06:34:11;;;;;;;5.07;3.70;;;;;;;11.00;100.00;102423.41;5122941;27;20453;-73
2021/12/13 06:36:46;;;;;;;7.13;4.22;;;;;;;11.08;100.00;102421.34;5121518;27;20035;-72
2021/12/13 06:39:13;;;;;;;4.85;4.07;;;;;;;11.29;100.00;102417.84;5119486;27;20035;-73
2021/12/13 06:41:46;;;;;;;5.85;4.50;;;;;;;11.29;100.00;102415.13;5099917;27;20489;-72
2021/12/13 06:44:20;;;;;;;4.68;4.00;;;;;;;11.24;100.00;102423.25;5119313;27;20472;-72
2021/12/13 06:47:03;;;;;;;8.50;4.60;;;;;;;11.34;100.00;102417.94;5114741;27;20064;-72
2021/12/13 06:49:40;;;;;;;9.00;4.80;;;;;;;11.36;100.00;102421.28;5121279;27;20023;-72
2021/12/13 06:52:12;;;;;;;8.77;4.72;;;;;;;11.08;100.00;102421.34;5122320;27;20119;-71
2021/12/13 06:54:48;;;;;;;9.20;4.53;;;;;;;11.16;100.00;102424.50;5126943;27;21394;-72
2021/12/13 06:57:34;;;;;;;7.22;4.85;;;;;;;11.13;100.00;102433.22;5120695;27;20056;-72
2021/12/13 07:00:21;;;;;;;7.75;5.03;;;;;;;11.09;100.00;102437.56;5122224;27;20349;-71
2021/12/13 07:03:03;;;;;;;7.68;5.72;;;;;;;11.11;100.00;102442.78;5119320;27;20023;-72
2021/12/13 07:05:34;;;;;;;8.80;5.38;;;;;;;11.14;100.00;102442.31;5120593;28;20113;-72
2021/12/13 07:08:15;;;;;;;6.35;5.75;;;;;;;11.12;100.00;102441.72;5124920;27;20023;-72
2021/12/13 07:10:55;;;;;;;8.73;5.82;;;;;;;10.95;100.00;102431.56;5122566;27;20453;-73
2021/12/13 07:13:36;;;;;;;9.45;6.00;;;;;;;11.11;100.00;102446.38;5124920;27;20042;-72
2021/12/13 07:16:20;;;;;;;10.00;6.10;;;;;;;11.07;100.00;102447.94;5122825;27;20023;-72
2021/12/13 07:19:02;;;;;;;7.10;5.75;;;;;;;11.08;100.00;102455.09;5125710;27;20538;-72
2021/12/13 07:21:32;;;;;;;9.05;6.50;;;;;;;11.09;100.00;102455.94;5123484;27;20046;-73
2021/12/13 07:24:06;;;;;;;8.93;6.63;;;;;;;10.91;100.00;102459.72;5119190;27;20023;-75
2021/12/13 07:26:35;;;;;;;11.93;6.53;;;;;;;11.12;100.00;102466.44;5107306;28;20106;-72
2021/12/13 07:29:04;;;;;;;8.10;6.28;;;;;;;11.10;100.00;102461.19;5108392;28;20474;-73
2021/12/13 07:31:29;;;;;;;10.20;6.72;;;;;;;11.09;100.00;102461.44;5099627;28;20964;-72
2021/12/13 07:34:08;;;;;;;8.05;7.25;;;;;;;11.14;100.00;102459.59;5124327;28;20035;-73
2021/12/13 07:36:33;;;;;;;10.13;6.97;;;;;;;11.14;100.00;102461.53;5123384;27;20066;-71
2021/12/13 07:39:07;;;;;;;7.60;6.43;;;;;;;11.16;100.00;102468.41;5109286;27;20050;-73
2021/12/13 07:41:44;;;;;;;10.95;6.85;;;;;;;11.06;100.00;102472.91;5124223;27;20027;-73
2021/12/13 07:44:33;;;;;;;9.55;6.78;;;;;;;10.99;100.00;102468.38;5125905;27;20041;-72
2021/12/13 07:47:10;;;;;;;9.25;6.90;;;;;;;11.11;100.00;102473.00;5122694;27;20042;-72
2021/12/13 07:49:42;;;;;;;10.90;7.45;;;;;;;10.90;100.00;102480.00;5121074;27;20767;-73
2021/12/13 07:52:21;;;;;;;11.75;7.93;;;;;;;11.09;100.00;102475.97;5124357;27;20462;-72
2021/12/13 07:54:48;;;;;;;9.50;6.72;;;;;;;11.18;100.00;102477.25;5108205;27;20039;-73
2021/12/13 07:57:34;;;;;;;8.32;7.07;;;;;;;11.15;100.00;102477.75;5102774;27;20054;-72
2021/12/13 08:00:10;;;;;;;8.50;6.97;;;;;;;11.12;100.00;102474.66;5105496;27;20036;-72
2021/12/13 08:02:37;;;;;;;10.73;6.78;;;;;;;10.97;100.00;102475.19;5101561;28;20035;-73
2021/12/13 08:05:11;;;;;;;11.27;7.20;;;;;;;10.71;100.00;102463.72;5107583;28;20061;-72
2021/12/13 08:07:50;;;;;;;9.70;7.90;;;;;;;11.10;100.00;102468.56;5105857;28;20509;-73
2021/12/13 08:10:25;;;;;;;11.63;7.63;;;;;;;11.14;100.00;102478.00;5103176;28;20080;-73
2021/12/13 08:12:55;;;;;;;10.20;7.90;;;;;;;11.15;100.00;102482.38;5108059;28;20134;-73
2021/12/13 08:15:25;;;;;;;10.48;8.48;;;;;;;10.94;100.00;102481.19;5109789;28;20477;-73
2021/12/13 08:17:56;;;;;;;21.23;8.35;;;;;;;11.10;100.00;102485.91;5104626;27;20023;-73
2021/12/13 08:20:42;;;;;;;13.95;7.75;;;;;;;11.03;100.00;102480.56;5125311;27;20490;-72
2021/12/13 08:23:18;;;;;;;10.50;7.88;;;;;;;11.12;100.00;102478.25;5124073;27;20031;-72
2021/12/13 08:25:46;;;;;;;12.00;8.00;;;;;;;11.11;100.00;102481.22;5121436;27;20030;-72
2021/12/13 08:28:15;;;;;;;13.77;7.72;;;;;;;11.13;100.00;102470.81;5125538;27;20098;-72
2021/12/13 08:30:48;;;;;;;10.63;7.80;;;;;;;10.93;100.00;102474.03;5123975;27;20083;-71
2021/12/13 08:33:26;;;;;;;10.82;8.27;;;;;;;11.16;100.00;102486.81;5105998;27;20031;-71
2021/12/13 08:36:09;;;;;;;11.88;7.90;;;;;;;11.27;100.00;102491.41;5104821;27;20028;-72
2021/12/13 08:38:38;;;;;;;15.05;8.75;;;;;;;10.88;100.00;102488.47;5103862;28;20521;-72
2021/12/13 08:41:29;;;;;;;10.40;7.97;;;;;;;11.08;100.00;102489.94;5101965;28;20448;-73
2021/12/13 08:44:06;;;;;;;11.45;8.23;;;;;;;11.08;100.00;102495.44;5107489;27;20172;-73
2021/12/13 08:46:46;;;;;;;10.38;7.88;;;;;;;11.30;100.00;102507.41;5100457;28;20537;-72
2021/12/13 08:49:34;;;;;;;14.65;8.00;;;;;;;11.00;100.00;102513.13;5105751;28;20042;-72
2021/12/13 08:52:18;;;;;;;9.77;7.43;;;;;;;11.25;100.00;102517.44;5108044;27;20047;-72
2021/12/13 08:54:54;;;;;;;13.25;7.60;;;;;;;11.15;100.00;102516.19;5107186;27;20102;-73
2021/12/13 08:57:52;;;;;;;13.82;8.00;;;;;;;11.13;100.00;102531.22;5123376;27;20034;-73
2021/12/13 09:00:45;;;;;;;10.45;7.28;;;;;;;11.28;100.00;102533.41;5124440;27;20019;-72
2021/12/13 09:03:17;;;;;;;12.15;8.00;;;;;;;11.44;100.00;102531.81;5125417;27;20613;-72
2021/12/13 09:05:57;;;;;;;12.98;7.55;;;;;;;11.51;100.00;102535.22;5105771;27;20035;-72
2021/12/13 09:08:26;;;;;;;13.18;8.20;;;;;;;11.45;100.00;102545.28;5145662;27;20054;-72
2021/12/13 09:11:05;;;;;;;10.65;8.35;;;;;;;11.51;100.00;102546.19;5144672;27;20365;-72
2021/12/13 09:14:15;;;;;;;9.98;7.30;;;;;;;11.62;100.00;102550.81;5145183;27;20301;-72
2021/12/13 09:17:10;;;;;;;10.95;7.32;;;;;;;11.41;100.00;102552.34;5110936;27;20197;-71
2021/12/13 09:20:16;;;;;;;10.65;7.40;;;;;;;11.32;100.00;102560.16;5145063;27;20035;-72
2021/12/13 09:22:46;;;;;;;10.15;7.25;;;;;;;11.15;100.00;102564.75;5127212;27;20141;-72
2021/12/13 09:25:26;;;;;;;11.75;7.90;;;;;;;11.18;100.00;102564.25;5142968;27;20121;-72
2021/12/13 09:28:17;;;;;;;10.07;7.35;;;;;;;11.06;100.00;102561.56;5128529;27;20073;-73
2021/12/13 09:30:48;;;;;;;11.48;6.85;;;;;;;11.47;100.00;102564.28;5102110;27;20039;-71
2021/12/13 09:33:23;;;;;;;11.65;7.10;;;;;;;11.19;100.00;102566.75;5123103;27;20046;-71
2021/12/13 09:36:00;;;;;;;13.00;7.15;;;;;;;11.29;100.00;102573.53;5123730;27;20150;-73
2021/12/13 09:38:51;;;;;;;10.02;7.28;;;;;;;11.58;100.00;102580.69;5143406;27;20027;-72
2021/12/13 09:41:23;;;;;;;10.98;7.38;;;;;;;11.61;100.00;102582.13;5141475;27;20099;-72
2021/12/13 09:44:11;;;;;;;10.95;7.40;;;;;;;11.69;100.00;102578.97;5145214;27;20031;-72
2021/12/13 09:46:58;;;;;;;10.57;7.20;;;;;;;11.45;100.00;102581.00;5088035;27;20127;-71
2021/12/13 09:49:36;;;;;;;10.70;6.65;;;;;;;11.56;100.00;102580.09;5115636;27;20023;-71
2021/12/13 09:52:17;;;;;;;9.25;7.30;;;;;;;11.73;100.00;102593.88;5123664;27;20346;-72
2021/12/13 09:54:51;;;;;;;10.85;6.65;;;;;;;11.85;100.00;102588.28;5104126;27;20031;-72
2021/12/13 09:57:26;;;;;;;9.60;6.78;;;;;;;11.76;100.00;102590.63;5122545;27;20027;-71
2021/12/13 09:59:54;;;;;;;10.75;7.20;;;;;;;11.57;100.00;102583.69;5105233;27;20034;-72
2021/12/13 10:02:40;;;;;;;9.80;7.18;;;;;;;11.65;100.00;102586.03;5110972;27;20042;-72
2021/12/13 10:05:11;;;;;;;11.88;7.00;;;;;;;11.81;100.00;102586.31;5143129;27;20030;-72
2021/12/13 10:07:39;;;;;;;7.70;6.85;;;;;;;11.92;100.00;102582.66;5141543;27;20899;-72
2021/12/13 10:10:08;;;;;;;10.27;6.70;;;;;;;12.01;100.00;102589.44;5144040;27;20456;-73
2021/12/13 10:12:45;;;;;;;10.00;6.75;;;;;;;11.76;100.00;102582.38;5141178;27;20133;-72
2021/12/13 10:15:34;;;;;;;9.75;6.47;;;;;;;12.10;100.00;102584.34;5143769;27;20409;-72
2021/12/13 10:18:07;;;;;;;10.38;7.10;;;;;;;11.99;100.00;102585.28;5123723;27;20110;-73
2021/12/13 10:20:44;;;;;;;;;;;;;;;11.93;100.00;102576.94;5142346;27;20182;-72
2021/12/13 10:23:14;;;;;;;8.40;6.45;;;;;;;11.98;100.00;102578.94;5127300;27;19911;-72
2021/12/13 10:25:43;;;;;;;10.15;7.10;;;;;;;12.19;100.00;102587.53;5139073;27;20120;-73
2021/12/13 10:28:13;;;;;;;11.23;7.32;;;;;;;12.07;100.00;102588.44;5145391;27;20042;-73
2021/12/13 10:30:44;;;;;;;9.45;7.60;;;;;;;12.10;100.00;102585.19;5131954;27;20392;-72
2021/12/13 10:33:11;;;;;;;9.68;7.50;;;;;;;12.10;100.00;102585.19;5123400;27;20050;-72
2021/12/13 10:35:41;;;;;;;11.65;7.97;;;;;;;12.26;100.00;102585.44;5121492;27;20027;-72
2021/12/13 10:38:20;;;;;;;13.25;8.35;;;;;;;11.97;100.00;102585.53;5117647;27;20022;-72
2021/12/13 10:41:14;;;;;;;12.70;8.20;;;;;;;11.89;100.00;102586.75;5122697;27;20050;-72
2021/12/13 10:43:47;;;;;;;11.65;8.23;;;;;;;11.88;100.00;102584.22;5140819;27;20380;-73
2021/12/13 10:46:25;;;;;;;11.15;8.35;;;;;;;12.02;100.00;102582.00;5139586;27;20055;-72
2021/12/13 10:48:59;;;;;;;11.52;8.15;;;;;;;11.99;100.00;102582.53;5126841;27;20019;-72
2021/12/13 10:51:31;;;;;;;12.45;8.88;;;;;;;11.93;100.00;102576.94;5141189;27;20053;-71
2021/12/13 10:54:01;;;;;;;12.73;8.40;;;;;;;11.94;100.00;102572.28;5146669;27;20033;-72
2021/12/13 10:56:53;;;;;;;13.68;9.23;;;;;;;11.97;100.00;102571.78;5120676;27;20044;-72
2021/12/13 10:59:27;;;;;;;12.63;8.48;;;;;;;12.10;100.00;102571.47;5145232;27;20019;-72
2021/12/13 11:02:00;;;;;;;12.23;9.40;;;;;;;12.11;100.00;102566.78;5119780;27;20027;-72
2021/12/13 11:04:34;;;;;;;11.63;9.07;;;;;;;11.81;100.00;102565.16;5122792;27;20033;-71
2021/12/13 11:07:03;;;;;;;13.65;10.45;;;;;;;12.26;100.00;102568.94;5129504;27;20026;-72
2021/12/13 11:09:29;;;;;;;13.43;9.20;;;;;;;12.25;100.00;102570.03;5121304;27;20042;-72
2021/12/13 11:12:20;;;;;;;14.80;9.82;;;;;;;12.23;100.00;102575.78;5114271;27;20445;-71
2021/12/13 11:14:49;;;;;;;13.13;9.82;;;;;;;12.25;100.00;102573.63;5128901;27;20034;-73
2021/12/13 11:17:21;;;;;;;12.63;9.05;;;;;;;12.26;100.00;102575.25;5124831;27;20029;-71
2021/12/13 11:19:51;;;;;;;14.80;10.53;;;;;;;12.53;100.00;102568.22;5147119;27;20030;-72
2021/12/13 11:22:26;;;;;;;12.98;9.98;;;;;;;12.12;100.00;102572.03;5148182;27;20034;-71
2021/12/13 11:24:54;;;;;;;14.18;10.38;;;;;;;12.28;100.00;102580.50;5112156;27;20541;-71
2021/12/13 11:27:27;;;;;;;18.88;10.88;;;;;;;12.09;100.00;102574.44;5092362;27;20423;-72
2021/12/13 11:29:54;;;;;;;15.02;10.68;;;;;;;12.35;100.00;102567.44;5108212;27;20113;-71
2021/12/13 11:32:31;;;;;;;15.90;10.63;;;;;;;12.43;100.00;102579.91;5133430;27;20507;-72
2021/12/13 11:35:06;;;;;;;14.30;10.57;;;;;;;12.41;100.00;102576.59;5148262;27;20030;-72
2021/12/13 11:38:04;;;;;;;15.90;11.13;;;;;;;12.30;100.00;102575.63;5145358;27;20030;-72
2021/12/13 11:40:51;;;;;;;15.90;11.40;;;;;;;12.26;100.00;102574.44;5143811;27;20011;-71
2021/12/13 11:43:56;;;;;;;16.42;11.05;;;;;;;12.47;100.00;102581.91;5147922;27;20060;-71
2021/12/13 11:47:03;;;;;;;17.13;11.50;;;;;;;12.35;100.00;102580.34;5102308;27;20019;-72
2021/12/13 11:49:54;;;;;;;17.65;11.50;;;;;;;11.97;100.00;102591.03;5126520;27;20027;-72
2021/12/13 11:52:36;;;;;;;14.50;10.40;;;;;;;12.19;100.00;102582.03;5107985;27;20036;-72
2021/12/13 11:55:30;;;;;;;14.77;10.75;;;;;;;12.27;100.00;102584.38;5108031;27;20619;-71
2021/12/13 11:58:33;;;;;;;15.90;11.10;;;;;;;12.54;100.00;102589.16;5128892;27;20019;-72